Time;durP1;ratioP1;P1;durP2;ratioP2;P2;SDS_P1;SDS_P2;PMS_P1;PMS_P2;Temp;Humidity;BMP_temperature;BMP_pressure;BME280_temperature;BME280_humidity;BME280_pressure;Samples;Min_cycle;Max_cycle;Signal;HPM_P1;HPM_P2
2023/04/19 00:00:56;;;;;;;12.57;5.17;;;;;;;18.49;58.88;100841.81;5030515;28;20163;-61
2023/04/19 00:03:23;;;;;;;10.40;5.57;;;;;;;18.45;59.26;100840.03;5020730;28;20412;-61
2023/04/19 00:05:48;;;;;;;11.37;5.90;;;;;;;18.40;59.33;100838.28;5048355;28;20426;-61
2023/04/19 00:08:14;;;;;;;8.60;5.10;;;;;;;18.39;59.55;100830.91;5049922;28;20567;-60
2023/04/19 00:10:39;;;;;;;13.20;6.13;;;;;;;18.36;59.33;100825.91;5048898;28;20403;-61
2023/04/19 00:13:05;;;;;;;13.97;5.00;;;;;;;18.36;59.46;100831.63;5032042;28;20179;-60
2023/04/19 00:15:30;;;;;;;11.30;5.67;;;;;;;18.36;59.51;100834.50;5029848;28;20674;-60
2023/04/19 00:17:56;;;;;;;11.03;5.73;;;;;;;18.34;59.57;100831.19;5030007;28;20183;-61
2023/04/19 00:20:21;;;;;;;8.20;4.90;;;;;;;18.33;59.32;100823.81;5031904;28;20211;-61
2023/04/19 00:22:47;;;;;;;14.93;4.87;;;;;;;18.33;59.23;100826.66;5030065;28;20169;-61
2023/04/19 00:25:12;;;;;;;14.10;5.37;;;;;;;18.35;59.41;100826.28;5034675;28;20190;-61
2023/04/19 00:27:38;;;;;;;16.63;5.47;;;;;;;18.35;59.35;100821.41;5049956;28;20172;-61
2023/04/19 00:30:04;;;;;;;13.50;5.33;;;;;;;18.33;59.43;100820.13;5047088;28;20867;-61
2023/04/19 00:32:29;;;;;;;11.57;5.27;;;;;;;18.35;59.56;100823.41;5045495;28;20629;-60
2023/04/19 00:34:55;;;;;;;9.80;5.30;;;;;;;18.35;59.45;100820.56;5049418;28;20429;-61
2023/04/19 00:37:20;;;;;;;15.57;5.03;;;;;;;18.33;59.29;100825.81;5045725;28;20651;-61
2023/04/19 00:39:46;;;;;;;15.50;5.43;;;;;;;18.35;59.45;100826.28;5049724;28;20167;-60
2023/04/19 00:42:11;;;;;;;10.87;5.40;;;;;;;18.34;59.47;100821.75;5048118;28;20167;-61
2023/04/19 00:44:37;;;;;;;13.77;5.23;;;;;;;18.38;59.27;100823.53;5046681;28;20194;-60
2023/04/19 00:47:02;;;;;;;13.30;5.40;;;;;;;18.36;59.45;100822.25;5050001;28;20222;-60
2023/04/19 00:49:28;;;;;;;11.20;5.03;;;;;;;18.36;59.38;100822.25;5040393;28;20189;-61
2023/04/19 00:51:53;;;;;;;10.43;4.70;;;;;;;18.36;59.08;100817.34;5028434;28;20212;-61
2023/04/19 00:54:19;;;;;;;10.43;5.20;;;;;;;18.35;59.40;100818.53;5019833;28;20177;-61
2023/04/19 00:56:44;;;;;;;12.17;3.90;;;;;;;18.36;59.42;100825.91;5047164;28;20194;-61
2023/04/19 00:59:10;;;;;;;11.37;5.03;;;;;;;18.33;59.22;100823.81;5049251;28;20168;-60
2023/04/19 01:01:37;;;;;;;9.23;4.73;;;;;;;18.36;59.15;100820.19;5041642;28;20191;-61
2023/04/19 01:04:02;;;;;;;12.00;5.53;;;;;;;18.32;59.50;100815.56;5048291;28;20168;-61
2023/04/19 01:06:28;;;;;;;11.00;5.07;;;;;;;18.35;59.26;100818.53;5044788;28;20457;-61
2023/04/19 01:08:54;;;;;;;9.13;5.30;;;;;;;18.35;59.39;100815.69;5029355;28;20742;-61
2023/04/19 01:11:20;;;;;;;10.23;4.53;;;;;;;18.35;59.30;100812.84;5027494;28;20470;-60
2023/04/19 01:13:45;;;;;;;14.00;5.27;;;;;;;18.34;59.39;100805.47;5028748;28;20655;-61
2023/04/19 01:16:10;;;;;;;11.20;4.70;;;;;;;18.37;59.31;100809.59;5031285;28;20671;-61
2023/04/19 01:18:38;;;;;;;10.53;4.43;;;;;;;18.34;59.11;100805.47;5033855;28;20219;-61
2023/04/19 01:21:03;;;;;;;9.37;4.60;;;;;;;18.34;59.21;100799.75;5032214;28;20698;-60
2023/04/19 01:23:29;;;;;;;10.60;5.67;;;;;;;18.31;59.13;100800.44;5033087;28;20415;-61
2023/04/19 01:25:55;;;;;;;8.80;4.57;;;;;;;18.31;59.56;100800.44;5035073;28;20194;-61
2023/04/19 01:28:20;;;;;;;12.10;4.40;;;;;;;18.33;59.08;100798.09;5033071;28;20711;-61
2023/04/19 01:30:45;;;;;;;10.50;4.40;;;;;;;18.31;59.08;100803.28;5031846;28;20250;-61
2023/04/19 01:33:11;;;;;;;10.77;5.30;;;;;;;18.31;59.06;100794.72;5033176;28;20172;-61
2023/04/19 01:35:36;;;;;;;10.63;4.37;;;;;;;18.31;59.36;100789.00;5032733;28;20176;-61
2023/04/19 01:38:02;;;;;;;8.97;4.60;;;;;;;18.30;59.40;100793.06;5032930;28;20164;-61
2023/04/19 01:40:27;;;;;;;8.67;4.27;;;;;;;18.30;59.10;100792.22;5037939;28;20180;-61
2023/04/19 01:42:53;;;;;;;11.70;4.70;;;;;;;18.30;59.24;100784.47;5046652;28;20230;-60
2023/04/19 01:45:18;;;;;;;9.83;4.50;;;;;;;18.30;59.47;100795.91;5032219;28;20231;-60
2023/04/19 01:47:44;;;;;;;8.40;4.20;;;;;;;18.30;59.21;100792.22;5031354;28;20520;-60
2023/04/19 01:50:09;;;;;;;12.77;5.17;;;;;;;18.29;59.17;100787.72;5034304;28;20176;-60
2023/04/19 01:52:35;;;;;;;13.50;4.80;;;;;;;18.34;58.91;100782.59;5032373;28;20172;-60
2023/04/19 01:55:00;;;;;;;11.67;5.07;;;;;;;18.34;59.14;100787.47;5034992;28;20266;-60
2023/04/19 01:57:26;;;;;;;11.10;4.50;;;;;;;18.30;59.08;100775.91;5032762;28;20168;-61
2023/04/19 01:59:54;;;;;;;8.00;4.57;;;;;;;18.28;59.35;100789.75;5028200;28;20318;-61
2023/04/19 02:02:20;;;;;;;9.00;4.30;;;;;;;18.29;59.18;100779.13;5041901;28;20171;-61
2023/04/19 02:04:45;;;;;;;8.67;4.53;;;;;;;18.30;59.19;100781.63;5052408;28;20947;-61
2023/04/19 02:07:11;;;;;;;7.83;4.37;;;;;;;18.32;59.13;100775.56;5047066;28;20207;-61
2023/04/19 02:09:36;;;;;;;7.70;4.30;;;;;;;18.29;59.23;100776.28;5050887;28;20230;-61
2023/04/19 02:12:03;;;;;;;11.07;5.43;;;;;;;18.28;59.27;100769.75;5048628;28;20188;-61
2023/04/19 02:14:28;;;;;;;10.67;4.97;;;;;;;18.30;59.24;100763.63;5033377;28;20200;-61
2023/04/19 02:16:54;;;;;;;13.37;4.97;;;;;;;18.28;59.35;100757.47;5030904;28;20423;-61
2023/04/19 02:19:19;;;;;;;7.13;4.40;;;;;;;18.29;58.99;100765.69;5030939;28;20176;-61
2023/04/19 02:21:45;;;;;;;8.77;4.63;;;;;;;18.28;59.30;100755.44;5032273;28;20187;-61
2023/04/19 02:24:10;;;;;;;9.07;4.53;;;;;;;18.28;59.27;100769.75;5035291;28;20242;-61
2023/04/19 02:26:36;;;;;;;8.43;4.10;;;;;;;18.28;59.11;100769.75;5038323;28;20181;-61
2023/04/19 02:29:01;;;;;;;8.50;4.50;;;;;;;18.27;59.35;100767.25;5031963;28;20167;-61
2023/04/19 02:31:27;;;;;;;9.07;4.37;;;;;;;18.27;59.26;100758.69;5033695;28;20571;-61
2023/04/19 02:33:52;;;;;;;8.97;5.10;;;;;;;18.28;59.56;100757.47;5032036;28;20659;-61
2023/04/19 02:36:18;;;;;;;7.80;4.00;;;;;;;18.26;59.11;100751.31;5033821;28;20851;-61
2023/04/19 02:38:43;;;;;;;8.10;4.20;;;;;;;18.28;59.48;100761.16;5031711;28;20179;-61
2023/04/19 02:41:08;;;;;;;6.97;4.40;;;;;;;18.27;59.36;100753.78;5031441;28;20180;-61
2023/04/19 02:43:34;;;;;;;9.23;4.53;;;;;;;18.24;59.24;100760.25;5046976;28;20572;-61
2023/04/19 02:46:00;;;;;;;8.70;3.80;;;;;;;18.26;58.94;100751.31;5047564;28;20736;-60
2023/04/19 02:48:25;;;;;;;7.63;3.50;;;;;;;18.25;59.10;100746.75;5048424;28;20176;-61
2023/04/19 02:50:51;;;;;;;8.80;4.07;;;;;;;18.28;59.15;100754.59;5030222;28;20524;-61
2023/04/19 02:53:16;;;;;;;6.67;4.27;;;;;;;18.26;59.00;100751.31;5030985;28;20172;-60
2023/04/19 02:55:42;;;;;;;10.33;4.27;;;;;;;18.26;58.95;100752.13;5030664;28;20177;-61
2023/04/19 02:58:07;;;;;;;7.30;4.10;;;;;;;18.25;59.35;100755.34;5032889;28;20185;-60
2023/04/19 03:00:36;;;;;;;8.90;4.17;;;;;;;18.27;59.18;100764.38;5030955;28;20176;-61
2023/04/19 03:03:03;;;;;;;9.73;4.43;;;;;;;18.25;59.34;100761.88;5021625;28;20658;-61
2023/04/19 03:05:29;;;;;;;8.87;4.80;;;;;;;18.28;58.99;100748.91;5042921;28;20427;-61
2023/04/19 03:07:54;;;;;;;7.00;3.73;;;;;;;18.27;59.25;100753.78;5051098;28;20462;-61
2023/04/19 03:10:20;;;;;;;7.20;4.17;;;;;;;18.27;59.20;100745.19;5047062;28;20175;-61
2023/04/19 03:12:45;;;;;;;7.33;3.73;;;;;;;18.28;59.24;100738.31;5051424;28;20204;-60
2023/04/19 03:15:11;;;;;;;8.10;3.80;;;;;;;18.26;58.96;100746.41;5044334;28;20184;-61
2023/04/19 03:17:36;;;;;;;8.00;4.30;;;;;;;18.28;59.07;100746.88;5031178;28;20640;-61
2023/04/19 03:20:02;;;;;;;9.53;4.70;;;;;;;18.27;59.25;100748.06;5032102;28;20541;-60
2023/04/19 03:22:27;;;;;;;8.83;4.10;;;;;;;18.24;58.92;100748.81;5032850;28;20192;-61
2023/04/19 03:24:52;;;;;;;8.87;4.80;;;;;;;18.27;59.24;100735.81;5028304;28;20184;-61
2023/04/19 03:27:18;;;;;;;6.50;3.60;;;;;;;18.27;59.03;100742.34;5031069;28;20199;-60
2023/04/19 03:29:43;;;;;;;8.53;4.20;;;;;;;18.26;59.31;100734.16;5030045;28;20212;-60
2023/04/19 03:32:09;;;;;;;9.37;4.03;;;;;;;18.26;59.24;100737.81;5038743;28;20214;-61
2023/04/19 03:34:34;;;;;;;8.67;4.17;;;;;;;18.28;58.98;100741.16;5047579;28;20172;-60
2023/04/19 03:37:00;;;;;;;7.40;4.17;;;;;;;18.29;58.97;100733.41;5030138;28;20176;-61
2023/04/19 03:39:25;;;;;;;8.27;4.13;;;;;;;18.28;58.75;100732.59;5030837;28;20248;-60
2023/04/19 03:41:50;;;;;;;7.97;3.90;;;;;;;18.26;58.90;100739.88;5044254;28;20249;-61
2023/04/19 03:44:16;;;;;;;8.50;4.20;;;;;;;18.26;58.90;100731.28;5050554;28;20160;-60
2023/04/19 03:46:41;;;;;;;8.00;3.60;;;;;;;18.27;59.06;100730.91;5044730;28;20195;-61
2023/04/19 03:49:07;;;;;;;8.30;4.07;;;;;;;18.26;59.15;100725.59;5050431;28;20202;-61
2023/04/19 03:51:32;;;;;;;9.00;3.70;;;;;;;18.28;58.97;100726.03;5036854;28;20785;-61
2023/04/19 03:53:58;;;;;;;7.47;3.43;;;;;;;18.26;59.05;100722.72;5037610;28;20548;-60
2023/04/19 03:56:23;;;;;;;7.87;4.47;;;;;;;18.27;59.13;100724.38;5035719;28;20172;-61
2023/04/19 03:58:52;;;;;;;10.70;3.97;;;;;;;18.26;58.98;100729.25;5019858;28;20250;-61
2023/04/19 04:01:18;;;;;;;6.07;3.20;;;;;;;18.25;59.14;100721.03;5029104;28;20176;-61
2023/04/19 04:03:44;;;;;;;8.00;4.03;;;;;;;18.23;59.32;100718.56;5029322;28;20423;-61
2023/04/19 04:06:09;;;;;;;5.53;3.40;;;;;;;18.26;58.84;100723.53;5042160;28;20453;-61
2023/04/19 04:08:35;;;;;;;5.13;3.30;;;;;;;18.24;58.87;100725.94;5049407;28;20231;-60
2023/04/19 04:11:00;;;;;;;5.50;3.67;;;;;;;18.23;58.95;100734.88;5036649;28;20207;-60
2023/04/19 04:13:26;;;;;;;6.73;3.90;;;;;;;18.24;59.05;100730.81;5028839;28;20180;-61
2023/04/19 04:15:51;;;;;;;7.30;3.97;;;;;;;18.24;59.00;100733.69;5028723;28;20229;-61
2023/04/19 04:18:16;;;;;;;6.20;3.50;;;;;;;18.26;59.07;100734.16;5029012;28;20180;-61
2023/04/19 04:20:43;;;;;;;7.53;3.87;;;;;;;18.26;58.89;100732.09;5027386;28;20184;-61
2023/04/19 04:23:09;;;;;;;7.80;3.60;;;;;;;18.26;59.08;100729.25;5028894;28;20204;-61
2023/04/19 04:25:36;;;;;;;5.80;3.83;;;;;;;18.25;59.06;100727.59;5031290;28;20810;-61
2023/04/19 04:28:03;;;;;;;7.20;4.17;;;;;;;18.26;58.75;100732.09;5029703;28;20434;-61
2023/04/19 04:30:28;;;;;;;6.40;3.53;;;;;;;18.25;58.93;100726.75;5031544;28;20526;-61
2023/04/19 04:32:56;;;;;;;8.37;3.90;;;;;;;18.27;58.69;100736.63;5029838;28;20522;-60
2023/04/19 04:35:22;;;;;;;7.77;4.00;;;;;;;18.26;58.85;100734.16;5029881;28;20175;-61
2023/04/19 04:37:47;;;;;;;8.73;4.07;;;;;;;18.27;58.84;100735.81;5031590;28;20430;-61
2023/04/19 04:40:13;;;;;;;6.93;3.90;;;;;;;18.26;59.04;100739.88;5029600;28;20161;-60
2023/04/19 04:42:38;;;;;;;6.70;4.13;;;;;;;18.27;58.67;100736.63;5031511;28;20195;-61
2023/04/19 04:45:04;;;;;;;5.83;3.33;;;;;;;18.27;59.01;100748.06;5028940;28;20171;-60
2023/04/19 04:47:31;;;;;;;5.80;3.20;;;;;;;18.24;59.01;100736.53;5028267;28;20188;-61
2023/04/19 04:49:56;;;;;;;7.00;4.00;;;;;;;18.26;58.81;100740.69;5029112;28;20180;-61
2023/04/19 04:52:22;;;;;;;8.10;3.63;;;;;;;18.27;58.90;100745.19;5028692;28;21031;-60
2023/04/19 04:54:47;;;;;;;7.13;3.80;;;;;;;18.27;58.88;100742.34;5034907;28;20705;-61
2023/04/19 04:57:13;;;;;;;6.20;3.70;;;;;;;18.28;58.76;100743.19;5033186;28;20169;-61
2023/04/19 04:59:38;;;;;;;5.57;3.47;;;;;;;18.28;58.66;100746.88;5034164;28;20234;-60
2023/04/19 05:02:03;;;;;;;8.77;3.73;;;;;;;18.27;58.67;100741.53;5030658;28;20238;-60
2023/04/19 05:04:29;;;;;;;5.57;3.70;;;;;;;18.28;58.68;100746.88;5030541;28;20179;-60
2023/04/19 05:06:54;;;;;;;8.37;3.90;;;;;;;18.30;58.59;100741.63;5034881;28;20678;-61
2023/04/19 05:09:20;;;;;;;7.13;3.17;;;;;;;18.27;58.67;100745.19;5025220;28;20243;-60
2023/04/19 05:11:45;;;;;;;5.77;3.47;;;;;;;18.27;58.74;100742.34;5022725;28;20719;-61
2023/04/19 05:14:12;;;;;;;6.27;3.73;;;;;;;18.28;58.95;100744.03;5028825;28;20192;-61
2023/04/19 05:16:38;;;;;;;5.63;3.27;;;;;;;18.30;58.69;100747.31;5050912;28;20221;-60
2023/04/19 05:19:03;;;;;;;6.00;4.00;;;;;;;18.28;58.79;100746.88;5037226;28;20411;-61
2023/04/19 05:21:29;;;;;;;6.53;3.73;;;;;;;18.29;58.63;100744.84;5032654;28;20450;-61
2023/04/19 05:23:54;;;;;;;5.57;3.63;;;;;;;18.36;59.00;100747.94;5028822;28;20200;-60
2023/04/19 05:26:20;;;;;;;8.63;5.20;;;;;;;18.31;58.90;100753.88;5023247;28;20187;-59
2023/04/19 05:28:45;;;;;;;14.90;10.40;;;;;;;18.33;57.18;100749.50;5018029;28;20185;-61
2023/04/19 05:31:11;;;;;;;22.53;15.60;;;;;;;18.72;60.86;100741.91;5024979;28;20232;-62
2023/04/19 05:33:36;;;;;;;20.97;14.47;;;;;;;18.80;59.46;100744.53;5017548;28;21045;-62
2023/04/19 05:36:02;;;;;;;22.00;13.17;;;;;;;18.57;58.23;100752.13;5027103;28;20230;-61
2023/04/19 05:38:27;;;;;;;31.67;11.90;;;;;;;18.56;52.71;100755.38;5039340;28;20199;-63
2023/04/19 05:40:53;;;;;;;16.03;11.57;;;;;;;18.66;52.43;100741.34;5049050;28;20188;-63
2023/04/19 05:43:18;;;;;;;16.03;10.33;;;;;;;18.68;50.74;100752.41;5045331;28;20175;-63
2023/04/19 05:45:44;;;;;;;17.07;11.03;;;;;;;18.76;51.15;100749.34;5040284;28;20189;-63
2023/04/19 05:48:09;;;;;;;12.97;9.67;;;;;;;18.98;50.67;100753.56;5059134;28;20179;-62
2023/04/19 05:50:37;;;;;;;14.20;9.10;;;;;;;19.18;51.11;100743.78;5052464;28;20192;-62
2023/04/19 05:53:03;;;;;;;16.70;11.30;;;;;;;19.32;52.19;100747.81;5053938;28;20185;-61
2023/04/19 05:55:28;;;;;;;15.33;10.40;;;;;;;19.33;52.46;100749.50;5051526;28;20552;-62
2023/04/19 05:57:54;;;;;;;14.80;9.77;;;;;;;19.35;51.84;100738.50;5049473;28;20193;-62
2023/04/19 06:00:20;;;;;;;13.70;10.00;;;;;;;19.40;51.56;100748.81;5048744;28;20260;-62
2023/04/19 06:02:45;;;;;;;14.37;8.47;;;;;;;19.39;51.47;100752.88;5045807;28;20160;-61
2023/04/19 06:05:11;;;;;;;14.87;8.83;;;;;;;19.60;51.57;100754.19;5042939;28;20196;-61
2023/04/19 06:07:36;;;;;;;12.30;7.57;;;;;;;19.58;51.24;100753.75;5042677;28;20228;-62
2023/04/19 06:10:02;;;;;;;12.77;8.60;;;;;;;19.50;51.48;100754.78;5037186;28;20180;-61
2023/04/19 06:12:27;;;;;;;14.40;7.93;;;;;;;19.44;51.57;100753.44;5057911;28;20199;-61
2023/04/19 06:14:53;;;;;;;12.73;7.90;;;;;;;19.38;51.86;100751.22;5039667;28;20192;-61
2023/04/19 06:17:23;;;;;;;11.03;7.67;;;;;;;19.35;51.74;100755.69;5036778;28;20532;-61
2023/04/19 06:19:49;;;;;;;18.93;7.27;;;;;;;19.28;52.33;100754.69;5017883;28;20177;-61
2023/04/19 06:22:15;;;;;;;12.10;6.60;;;;;;;19.25;53.14;100755.44;5013747;28;20550;-61
2023/04/19 06:24:40;;;;;;;15.13;7.90;;;;;;;19.17;53.47;100759.31;5011412;28;20404;-61
2023/04/19 06:27:05;;;;;;;11.93;6.97;;;;;;;19.13;53.90;100759.25;5036973;28;20192;-62
2023/04/19 06:29:31;;;;;;;11.53;7.07;;;;;;;19.10;54.12;100750.56;5039525;28;20192;-61
2023/04/19 06:31:56;;;;;;;14.47;6.90;;;;;;;19.06;54.25;100759.06;5020118;28;20962;-61
2023/04/19 06:34:22;;;;;;;15.17;6.40;;;;;;;19.03;54.41;100762.69;5029025;28;20184;-61
2023/04/19 06:36:47;;;;;;;13.33;7.13;;;;;;;18.97;54.56;100761.28;5032854;28;20180;-61
2023/04/19 06:39:13;;;;;;;11.93;5.67;;;;;;;18.93;54.77;100757.53;5030731;28;20161;-61
2023/04/19 06:41:39;;;;;;;7.97;5.90;;;;;;;18.89;55.23;100761.50;5033782;28;20184;-61
2023/04/19 06:44:04;;;;;;;10.83;6.00;;;;;;;18.84;55.45;100756.91;5031269;28;20427;-61
2023/04/19 06:46:30;;;;;;;11.23;6.63;;;;;;;18.81;55.50;100759.69;5017628;28;20188;-61
2023/04/19 06:48:55;;;;;;;10.33;6.13;;;;;;;18.75;55.92;100759.13;5037357;28;20654;-61
2023/04/19 06:51:21;;;;;;;11.07;5.73;;;;;;;18.69;56.12;100760.63;5034039;28;20691;-61
2023/04/19 06:53:46;;;;;;;12.23;6.63;;;;;;;18.65;56.29;100765.41;5026419;28;20583;-61
2023/04/19 06:56:12;;;;;;;10.23;6.13;;;;;;;18.62;56.40;100765.34;5031036;28;20199;-61
2023/04/19 06:58:38;;;;;;;7.80;5.53;;;;;;;18.58;56.81;100768.13;5033224;28;20192;-61
2023/04/19 07:01:03;;;;;;;15.17;6.70;;;;;;;18.58;56.78;100770.97;5030980;28;20403;-61
2023/04/19 07:03:29;;;;;;;8.40;5.77;;;;;;;18.56;57.01;100766.81;5031055;28;20176;-61
2023/04/19 07:05:57;;;;;;;13.30;5.40;;;;;;;18.56;56.71;100755.38;5042278;28;20191;-62
2023/04/19 07:08:23;;;;;;;8.80;5.37;;;;;;;18.55;56.80;100759.41;5032759;28;20595;-61
2023/04/19 07:10:48;;;;;;;10.80;6.07;;;;;;;18.55;56.84;100768.84;5032758;28;20471;-61
2023/04/19 07:13:14;;;;;;;9.10;5.00;;;;;;;18.54;57.25;100760.63;5049079;28;20619;-61
2023/04/19 07:15:39;;;;;;;9.23;5.17;;;;;;;18.51;56.87;100753.63;5050037;28;20765;-61
2023/04/19 07:18:05;;;;;;;9.03;5.70;;;;;;;18.51;57.28;100767.91;5034888;28;20211;-61
2023/04/19 07:20:30;;;;;;;10.20;5.80;;;;;;;18.48;57.34;100762.97;5029421;28;20420;-61
2023/04/19 07:22:59;;;;;;;8.73;5.17;;;;;;;18.47;57.45;100758.41;5031083;28;20187;-61
2023/04/19 07:25:25;;;;;;;7.13;5.37;;;;;;;18.46;57.49;100758.81;5049317;28;20167;-62
2023/04/19 07:27:53;;;;;;;8.13;4.90;;;;;;;18.44;57.56;100753.44;5049515;28;20546;-61
2023/04/19 07:30:19;;;;;;;12.70;5.77;;;;;;;18.41;57.73;100754.19;5045439;28;20195;-61
2023/04/19 07:32:45;;;;;;;9.67;5.30;;;;;;;18.45;57.65;100755.09;5039302;28;20463;-61
2023/04/19 07:35:10;;;;;;;13.60;5.80;;;;;;;18.45;57.45;100754.25;5034672;28;20191;-61
2023/04/19 07:37:36;;;;;;;9.60;4.90;;;;;;;18.50;57.32;100751.13;5050141;28;20207;-61
2023/04/19 07:40:02;;;;;;;8.90;5.80;;;;;;;18.48;57.63;100756.41;5050315;28;20229;-61
2023/04/19 07:42:29;;;;;;;8.00;4.93;;;;;;;18.45;57.52;100748.53;5046081;28;20184;-61
2023/04/19 07:44:54;;;;;;;10.17;5.53;;;;;;;18.42;57.70;100743.59;5050105;28;20441;-61
2023/04/19 07:47:19;;;;;;;7.90;4.90;;;;;;;18.43;57.89;100751.78;5045910;28;20438;-61
2023/04/19 07:49:45;;;;;;;8.47;5.30;;;;;;;18.42;57.89;100755.81;5048813;28;20172;-61
2023/04/19 07:52:10;;;;;;;7.80;4.87;;;;;;;18.44;58.14;100753.44;5030941;28;20262;-61
2023/04/19 07:54:38;;;;;;;9.00;5.10;;;;;;;18.43;57.74;100757.50;5024856;28;20235;-61
2023/04/19 07:57:03;;;;;;;8.77;5.70;;;;;;;18.41;57.63;100756.22;5025038;28;20200;-61
2023/04/19 07:59:29;;;;;;;9.00;5.40;;;;;;;18.42;57.78;100755.03;5030035;28;20532;-61
2023/04/19 08:01:54;;;;;;;7.43;5.13;;;;;;;18.41;57.98;100754.19;5031454;28;20180;-61
2023/04/19 08:04:21;;;;;;;6.23;4.50;;;;;;;18.39;58.04;100762.31;5032275;28;20168;-61
2023/04/19 08:06:47;;;;;;;6.67;4.90;;;;;;;18.37;58.09;100755.28;5028987;28;20706;-61
2023/04/19 08:09:12;;;;;;;7.63;4.63;;;;;;;18.37;57.82;100750.38;5029824;28;20466;-61
2023/04/19 08:11:38;;;;;;;7.20;4.90;;;;;;;18.39;58.10;100750.88;5030164;28;20223;-61
2023/04/19 08:14:03;;;;;;;11.53;5.00;;;;;;;18.43;57.78;100751.78;5029793;28;20550;-61
2023/04/19 08:16:29;;;;;;;6.93;4.77;;;;;;;18.45;57.72;100748.53;5037457;28;20581;-61
2023/04/19 08:18:54;;;;;;;10.43;5.17;;;;;;;18.49;57.84;100735.19;5049902;28;20511;-61
2023/04/19 08:21:20;;;;;;;7.07;5.40;;;;;;;18.51;57.85;100744.22;5025738;28;20669;-61
2023/04/19 08:23:46;;;;;;;5.57;4.77;;;;;;;18.53;57.65;100738.97;5045675;28;20209;-61
2023/04/19 08:26:11;;;;;;;8.10;5.13;;;;;;;18.54;57.57;100735.72;5048210;28;20191;-61
2023/04/19 08:28:37;;;;;;;9.47;5.30;;;;;;;18.54;57.64;100743.47;5037857;28;20230;-61
2023/04/19 08:31:05;;;;;;;8.23;5.20;;;;;;;18.54;57.54;100741.47;5028250;28;20196;-61
2023/04/19 08:33:30;;;;;;;7.13;4.70;;;;;;;18.52;57.77;100738.13;5029982;28;20194;-61
2023/04/19 08:35:56;;;;;;;8.80;5.70;;;;;;;18.49;57.60;100741.72;5029041;28;20427;-61
2023/04/19 08:38:21;;;;;;;6.60;4.40;;;;;;;18.47;57.92;100731.88;5028148;28;20188;-61
2023/04/19 08:40:51;;;;;;;6.63;5.63;;;;;;;18.46;57.72;100736.75;5029309;28;20168;-61
2023/04/19 08:43:17;;;;;;;6.70;5.33;;;;;;;18.45;58.01;100735.09;5031589;28;20275;-62
2023/04/19 08:45:42;;;;;;;5.90;4.73;;;;;;;18.43;58.15;100733.81;5029495;28;20419;-61
2023/04/19 08:48:10;;;;;;;7.10;5.17;;;;;;;18.41;57.86;100731.31;5028555;28;20161;-61
2023/04/19 08:50:35;;;;;;;6.80;4.77;;;;;;;18.39;58.28;100739.44;5027494;28;20943;-61
2023/04/19 08:53:01;;;;;;;6.87;4.40;;;;;;;18.37;58.37;100733.25;5046984;28;20480;-61
2023/04/19 08:55:27;;;;;;;6.50;4.70;;;;;;;18.37;58.44;100735.28;5047722;28;20180;-61
2023/04/19 08:57:52;;;;;;;8.50;5.07;;;;;;;18.37;58.14;100736.09;5042034;28;20547;-61
2023/04/19 09:00:18;;;;;;;11.47;5.30;;;;;;;18.37;58.12;100738.16;5029511;28;20187;-62
2023/04/19 09:02:48;;;;;;;6.50;4.73;;;;;;;18.38;58.29;100742.66;5029359;28;20255;-61
2023/04/19 09:05:14;;;;;;;9.33;5.07;;;;;;;18.37;58.37;100729.56;5038562;28;20418;-61
2023/04/19 09:07:41;;;;;;;6.10;4.57;;;;;;;18.37;58.11;100736.09;5047970;28;20526;-61
2023/04/19 09:10:11;;;;;;;8.27;5.00;;;;;;;18.35;58.25;100732.78;5040063;28;20617;-61
2023/04/19 09:12:37;;;;;;;6.83;5.03;;;;;;;18.42;58.30;100730.09;5026982;28;20451;-61
2023/04/19 09:15:03;;;;;;;7.67;4.73;;;;;;;18.36;58.36;100720.16;5029866;28;20515;-61
2023/04/19 09:17:31;;;;;;;8.70;5.03;;;;;;;18.39;58.25;100727.16;5037504;28;20196;-61
2023/04/19 09:19:57;;;;;;;7.50;5.13;;;;;;;18.44;57.91;100724.88;5028191;28;20407;-61
2023/04/19 09:22:22;;;;;;;6.60;4.00;;;;;;;18.43;58.37;100719.50;5028803;28;20865;-61
2023/04/19 09:24:48;;;;;;;5.93;4.20;;;;;;;18.41;58.20;100725.59;5029084;28;20757;-61
2023/04/19 09:27:15;;;;;;;5.70;4.30;;;;;;;18.39;58.45;100725.16;5027557;28;20203;-61
2023/04/19 09:29:41;;;;;;;6.57;4.47;;;;;;;18.40;58.09;100703.09;5027501;28;20275;-61
2023/04/19 09:32:06;;;;;;;8.67;5.70;;;;;;;18.39;58.21;100708.00;5031066;28;20459;-61
2023/04/19 09:34:32;;;;;;;5.97;4.20;;;;;;;18.38;58.22;100703.47;5027737;28;20199;-61
2023/04/19 09:36:57;;;;;;;7.30;4.40;;;;;;;18.32;58.62;100704.94;5033808;28;20180;-61
2023/04/19 09:39:30;;;;;;;7.60;4.67;;;;;;;18.32;58.35;100698.38;5029285;28;20185;-61
2023/04/19 09:41:57;;;;;;;7.60;4.90;;;;;;;18.33;58.56;100695.19;5021777;28;20266;-61
2023/04/19 09:44:22;;;;;;;6.40;4.43;;;;;;;18.35;58.54;100695.63;5032555;28;20407;-61
2023/04/19 09:46:50;;;;;;;6.73;4.57;;;;;;;18.37;58.53;100698.13;5030125;28;20842;-61
2023/04/19 09:49:23;;;;;;;6.53;4.60;;;;;;;18.38;58.44;100694.06;5033890;28;20650;-61
2023/04/19 09:51:52;;;;;;;6.20;4.57;;;;;;;18.41;58.40;100684.75;5016360;28;20467;-61
2023/04/19 09:54:19;;;;;;;6.37;4.50;;;;;;;18.43;58.13;100683.19;5041202;28;21081;-61
2023/04/19 09:56:44;;;;;;;5.90;4.53;;;;;;;18.47;57.96;100675.50;5050325;28;20452;-61
2023/04/19 09:59:10;;;;;;;6.10;4.43;;;;;;;18.50;58.00;100666.19;5047426;28;20844;-61
2023/04/19 10:01:53;;;;;;;7.13;5.07;;;;;;;18.53;58.03;100670.34;5051911;28;20171;-61
2023/04/19 10:04:21;;;;;;;6.40;4.40;;;;;;;18.53;57.86;100664.63;5051676;28;20226;-61
2023/04/19 10:06:50;;;;;;;6.07;4.03;;;;;;;18.52;57.92;100663.78;5029544;28;20449;-61
2023/04/19 10:09:22;;;;;;;6.33;4.23;;;;;;;18.52;58.07;100663.78;5031757;28;20489;-61
2023/04/19 10:11:52;;;;;;;5.53;4.20;;;;;;;18.50;57.93;100651.06;5026275;28;20604;-61
2023/04/19 10:14:24;;;;;;;5.60;4.20;;;;;;;18.48;58.17;100651.44;5030965;28;20450;-61
2023/04/19 10:16:50;;;;;;;6.90;4.73;;;;;;;18.48;58.08;100657.16;5029076;28;20411;-61
2023/04/19 10:19:18;;;;;;;6.93;4.57;;;;;;;18.45;58.12;100652.19;5049226;28;20442;-61
2023/04/19 10:21:46;;;;;;;6.00;4.30;;;;;;;18.42;58.40;100652.91;5035730;28;20184;-60
2023/04/19 10:24:12;;;;;;;6.20;4.33;;;;;;;18.42;58.47;100643.53;5043635;28;20674;-61
2023/04/19 10:27:02;;;;;;;5.23;4.10;;;;;;;18.39;58.21;100647.97;5050024;28;20402;-61
2023/04/19 10:30:12;;;;;;;6.53;4.70;;;;;;;18.41;58.49;100636.97;5047413;28;20442;-60
2023/04/19 10:32:42;;;;;;;6.70;4.50;;;;;;;18.38;58.35;100639.75;5032975;28;20470;-62
2023/04/19 10:35:17;;;;;;;6.10;4.50;;;;;;;18.39;58.64;100639.38;5042505;28;20443;-61
2023/04/19 10:38:08;;;;;;;7.67;4.33;;;;;;;18.37;58.42;100633.19;5018823;28;20600;-61
2023/04/19 10:43:18;;;;;;;6.40;3.97;;;;;;;18.34;58.49;100631.09;5011518;28;20422;-61
2023/04/19 10:45:44;;;;;;;6.73;4.20;;;;;;;18.40;58.50;100631.63;5011513;28;20416;-61
2023/04/19 10:48:34;;;;;;;6.37;4.60;;;;;;;18.47;58.31;100626.91;5028838;28;20613;-61
2023/04/19 10:51:02;;;;;;;4.97;3.80;;;;;;;18.51;58.20;100622.09;5030113;28;20482;-61
2023/04/19 10:53:52;;;;;;;6.43;4.50;;;;;;;18.52;57.98;100623.75;5032035;28;20451;-61
2023/04/19 10:56:20;;;;;;;6.20;4.00;;;;;;;18.51;57.99;100610.66;5029880;28;20406;-61
2023/04/19 10:59:09;;;;;;;6.13;4.17;;;;;;;18.53;58.07;100613.16;5030767;28;20431;-61
2023/04/19 11:01:44;;;;;;;6.60;4.33;;;;;;;18.52;58.10;100612.31;5031943;28;20438;-61
2023/04/19 11:04:11;;;;;;;6.57;4.40;;;;;;;18.54;57.91;100618.50;5018378;28;20900;-61
2023/04/19 11:07:00;;;;;;;6.50;4.20;;;;;;;18.52;57.98;100608.66;5047039;28;20447;-61
2023/04/19 11:09:41;;;;;;;5.47;4.13;;;;;;;18.49;58.18;100618.78;5016968;28;20475;-61
2023/04/19 11:12:09;;;;;;;4.87;3.90;;;;;;;18.53;58.61;100610.28;5029487;28;20447;-61
2023/04/19 11:14:36;;;;;;;6.17;4.13;;;;;;;18.55;57.83;100607.88;5024861;28;20546;-62
2023/04/19 11:17:17;;;;;;;5.13;3.87;;;;;;;18.43;58.49;100603.13;5010332;28;20404;-61
2023/04/19 11:19:59;;;;;;;5.70;3.93;;;;;;;18.37;58.74;100595.22;5024098;28;20475;-61
2023/04/19 11:22:30;;;;;;;5.10;3.80;;;;;;;18.38;58.65;100594.84;5010481;28;20423;-61